Albuquerque, NM (87101)

10:58 AM MDT on September 04, 2015 (GMT -0600)
UNM Area West | | Change Station
CLOSE
Current Station
Personal Weather Station
Location: Albuquerque, NM
Elevation: 5133 ft
Nearby Weather Stations

Elev 5133 ft 35.09 °N, 106.63 °W | Updated 9 minutes ago

Overcast
Overcast
76.1 °F
Feels Like 78 °F
N
4.0
Wind Variable Wind from SSW
Gusts 5.0 mph

Today
High -- | Low -- °F
--% Chance of Precip.
Yesterday
High -- | Low -- °F
Precip. -- in
6:41 AM 7:29 PM
Waning Gibbous, 58% visible
Pressure 29.91 in
Visibility 10.0 miles
Clouds Few 8000 ft
Scattered Clouds 10000 ft
Mostly Cloudy 15000 ft
Overcast 20000 ft
Heat Index 78 °F
Dew Point 52 °F
Humidity 43%
Rainfall 0.00 in
Snow Depth Not available.
UV 2 out of 12
Pollen 6.20 out of 12
Air Quality Not available.
Flu Activity Not available.
METAR KABQ 041652Z 21006KT 10SM FEW080 SCT100 BKN150 OVC200 23/09 A3015 RMK AO2 SLP126 TCU DSNT SW-W T02330094
Pressure 29.91 in
Visibility 10.0 miles
Clouds Few 8000 ft
Scattered Clouds 10000 ft
Mostly Cloudy 15000 ft
Overcast 20000 ft
Heat Index 78 °F
Dew Point 52 °F
Humidity 43%
Rainfall 0.00 in
Snow Depth Not available.
UV 2 out of 12
Pollen 6.20 out of 12
Air Quality Not available.
Flu Activity Not available.
METAR KABQ 041652Z 21006KT 10SM FEW080 SCT100 BKN150 OVC200 23/09 A3015 RMK AO2 SLP126 TCU DSNT SW-W T02330094

10-Day Weather Forecast

×

Almanac

Astronomy

Sep. 04, 2015 Rise Set
Actual Time
Civil Twilight
Nautical Twilight
Astronomical Twilight
Moon
Length of Visible Light
Length of Day
Tomorrow will be .
, % of the Moon is Illuminated

Today's Extremes

State Highs State Lows

Community

WunderPhotos

Upload Photos

1,852,226 photos uploaded!

WunderBlogs® & News

Nearby

Air Quality

  Air Quality AQ Index Pollutant
Not available.

Snow Depth

Station Depth Elevation

Earthquake Activity

City Distance Mag. Time & Date
Minimum magnitude displayed is 2.5.

Coastal Water Temperatures

Place Temperature

Stations

Nearby Weather Stations

Station Location Temp. Windchill Dew Point Humidity Wind Precip. Elev Updated Type